Погода Раздобаринона 2 недели

Смоленская область, Россия

22 мая-04 июня
  • 22мая
    Сегодня
    +9°
    +22°
    Ясно и безоблачно
    ВремяПогодаТемператураВлажностьДавлениеВетер, м/сВероятность осадков
    00:00Ясно и безоблачно+14°C74 %747 мм1.7 м/с2 %
    03:00Ясно и безоблачно+11°C73 %748 мм1.6 м/с2 %
    06:00Ясно и безоблачно+10°C67 %748 мм1.4 м/с2 %
    09:00Ясно и безоблачно+16°C57 %749 мм2.1 м/с2 %
    12:00Ясно и безоблачно+21°C42 %749 мм2.8 м/с2 %
    15:00Ясно и безоблачно+22°C37 %749 мм3.6 м/с2 %
    18:00Ясно и безоблачно+22°C36 %749 мм2.8 м/с3 %
    21:00Ясно и безоблачно+17°C50 %749 мм2.2 м/с2 %
  • 23мая
    Четверг
    +7°
    +21°
    Ясно и безоблачно
    ВремяПогодаТемператураВлажностьДавлениеВетер, м/сВероятность осадков
    00:00Ясно и безоблачно+13°C56 %750 мм2.1 м/с2 %
    03:00Ясно и безоблачно+10°C59 %751 мм2.1 м/с2 %
    06:00Ясно и безоблачно+10°C62 %752 мм2.0 м/с2 %
    09:00Ясно и безоблачно+15°C50 %753 мм3.0 м/с2 %
    12:00Ясно и безоблачно+19°C36 %753 мм3.7 м/с2 %
    15:00Ясно и безоблачно+20°C33 %753 мм4.0 м/с2 %
    18:00Ясно и безоблачно+20°C36 %753 мм3.0 м/с2 %
    21:00Ясно и безоблачно+16°C49 %754 мм2.4 м/с2 %
  • 24мая
    Пятница
    +7°
    +21°
    Ясно и безоблачно
    ВремяПогодаТемператураВлажностьДавлениеВетер, м/сВероятность осадков
    00:00Ясно и безоблачно+12°C57 %755 мм1.8 м/с2 %
    03:00Ясно и безоблачно+9°C62 %755 мм1.8 м/с2 %
    06:00Ясно и безоблачно+9°C64 %756 мм1.6 м/с2 %
    09:00Ясно и безоблачно+15°C42 %757 мм2.8 м/с2 %
    12:00Ясно и безоблачно+18°C32 %757 мм3.3 м/с2 %
    15:00Ясно и безоблачно+20°C28 %756 мм3.7 м/с2 %
    18:00Ясно и безоблачно+20°C30 %755 мм2.6 м/с2 %
    21:00Ясно и безоблачно+16°C49 %755 мм2.1 м/с2 %
  • 25мая
    Суббота
    +8°
    +23°
    Ясно и безоблачно
    ВремяПогодаТемператураВлажностьДавлениеВетер, м/сВероятность осадков
    00:00Ясно и безоблачно+11°C59 %755 мм1.6 м/с2 %
    03:00Ясно и безоблачно+8°C70 %755 мм1.5 м/с2 %
    06:00Ясно и безоблачно+9°C72 %755 мм1.5 м/с2 %
    09:00Ясно и безоблачно+16°C53 %755 мм2.0 м/с2 %
    12:00Ясно и безоблачно+20°C41 %754 мм2.4 м/с2 %
    15:00Ясно и безоблачно+22°C37 %753 мм3.0 м/с2 %
    18:00Ясно и безоблачно+23°C37 %752 мм2.0 м/с2 %
    21:00Ясно и безоблачно+18°C64 %751 мм1.5 м/с2 %
  • 26мая
    Воскресенье
    +11°
    +24°
    Практически безоблачно
    ВремяПогодаТемператураВлажностьДавлениеВетер, м/сВероятность осадков
    00:00Ясно и безоблачно+13°C73 %751 мм1.0 м/с2 %
    03:00Ясно и безоблачно+10°C81 %751 мм1.1 м/с2 %
    06:00Ясно и безоблачно+11°C80 %751 мм0.9 м/с2 %
    09:00Ясно и безоблачно+18°C60 %751 мм1.3 м/с4 %
    12:00Практически безоблачно+23°C39 %751 мм1.6 м/с14 %
    15:00Практически безоблачно+24°C38 %750 мм2.4 м/с22 %
    18:00Небольшая облачность+23°C41 %750 мм2.2 м/с42 %
    21:00Ясно и безоблачно+19°C76 %750 мм1.3 м/с21 %
Мы используем cookies
Соглашаюсь